createdAt,value
2017-11-18T07:52:13.753Z,20.23
2017-11-18T07:54:43.742Z,20.13
2017-11-18T07:57:12.119Z,17.47
2017-11-18T07:59:40.451Z,18.37
2017-11-18T08:02:08.808Z,18.03
2017-11-18T08:04:37.170Z,15.43
2017-11-18T08:07:08.589Z,22.50
2017-11-18T08:09:36.963Z,15.53
2017-11-18T08:12:05.302Z,19.27
2017-11-18T08:14:34.638Z,24.13
2017-11-18T08:17:03.339Z,25.83
2017-11-18T08:19:31.695Z,15.83
2017-11-18T08:22:00.047Z,17.90
2017-11-18T08:24:30.098Z,25.70
2017-11-18T08:26:58.440Z,23.00
2017-11-18T08:29:26.804Z,18.23
2017-11-18T08:31:55.143Z,18.50
2017-11-18T08:34:23.474Z,20.13
2017-11-18T08:36:51.879Z,19.17
2017-11-18T08:39:20.604Z,30.50
2017-11-18T08:51:29.023Z,22.67
2017-11-18T08:53:57.636Z,25.20
2017-11-18T08:56:25.945Z,17.13
2017-11-18T08:58:55.061Z,22.20
2017-11-18T09:01:23.375Z,21.53
2017-11-18T09:03:51.727Z,23.03
2017-11-18T09:06:20.064Z,20.43
2017-11-18T09:08:48.394Z,21.53
2017-11-18T09:11:16.738Z,24.70
2017-11-18T09:13:45.069Z,18.80
2017-11-18T09:16:13.404Z,23.20
2017-11-18T09:18:41.760Z,26.33
2017-11-18T09:21:10.037Z,29.10
2017-11-18T09:23:38.489Z,26.10
2017-11-18T09:26:06.996Z,34.67
2017-11-18T09:28:35.776Z,25.73
2017-11-18T09:31:04.131Z,22.70
2017-11-18T09:33:32.644Z,33.30
2017-11-18T09:36:01.266Z,22.70
2017-11-18T09:38:29.599Z,26.60
2017-11-18T09:40:57.964Z,26.20
2017-11-18T09:43:26.341Z,25.30
2017-11-18T09:45:54.705Z,23.83
2017-11-18T09:48:23.093Z,27.33
2017-11-18T09:50:51.694Z,26.33
2017-11-18T09:53:20.219Z,25.00
2017-11-18T09:55:48.555Z,25.37
2017-11-18T09:58:17.225Z,22.17
2017-11-18T10:00:45.724Z,23.57
2017-11-18T10:03:14.280Z,25.27
2017-11-18T10:05:42.342Z,25.33
2017-11-18T10:08:10.732Z,24.60
2017-11-18T10:10:39.103Z,21.20
2017-11-18T10:13:07.466Z,23.57
2017-11-18T10:15:35.841Z,24.03
2017-11-18T10:18:04.175Z,30.03
2017-11-18T10:20:32.548Z,19.93
2017-11-18T10:23:01.693Z,27.37
2017-11-18T10:25:30.034Z,21.43
2017-11-18T10:27:58.388Z,20.70
2017-11-18T10:30:26.726Z,20.33
2017-11-18T10:32:55.060Z,22.80
2017-11-18T10:35:24.157Z,25.27
2017-11-18T10:37:52.160Z,21.90
2017-11-18T10:40:20.489Z,19.50
2017-11-18T10:42:49.606Z,24.30
2017-11-18T10:45:17.634Z,26.67
2017-11-18T10:47:46.377Z,25.33
2017-11-18T10:50:14.053Z,23.60
2017-11-18T10:52:44.057Z,19.00
2017-11-18T10:55:12.083Z,17.53
2017-11-18T10:57:40.416Z,25.10
2017-11-18T11:00:11.737Z,22.33
2017-11-18T11:02:40.094Z,19.03
2017-11-18T11:05:08.319Z,21.73
2017-11-18T11:07:36.831Z,17.80
2017-11-18T11:10:05.166Z,19.90
2017-11-18T11:12:33.716Z,18.17
2017-11-18T11:15:02.048Z,19.00
2017-11-18T11:17:30.821Z,24.13
2017-11-18T11:19:59.358Z,19.40
2017-11-18T11:22:27.696Z,20.50
2017-11-18T11:24:55.900Z,17.87
2017-11-18T11:27:23.903Z,19.27
2017-11-18T11:29:52.659Z,19.70
2017-11-18T11:32:21.007Z,18.70
2017-11-18T11:34:49.696Z,19.60
2017-11-18T11:37:18.019Z,22.23
2017-11-18T11:39:46.357Z,24.53
2017-11-18T11:42:14.807Z,25.70
2017-11-18T11:44:43.923Z,15.70
2017-11-18T11:47:12.301Z,20.63
2017-11-18T11:49:40.655Z,21.17
2017-11-18T11:52:09.009Z,24.83
2017-11-18T11:54:37.950Z,22.13
2017-11-18T11:57:06.323Z,19.77
2017-11-18T11:59:35.677Z,17.30
2017-11-18T12:02:04.831Z,23.17
2017-11-18T12:04:33.241Z,17.43
2017-11-18T12:07:01.586Z,19.87
2017-11-18T12:09:29.925Z,17.03
2017-11-18T12:11:58.372Z,17.93
2017-11-18T12:14:27.491Z,14.80
2017-11-18T12:16:55.846Z,20.20
2017-11-18T12:19:24.179Z,16.77
2017-11-18T12:21:51.866Z,18.03
2017-11-18T12:24:20.212Z,14.50
2017-11-18T12:26:48.670Z,20.10
2017-11-18T12:29:17.576Z,13.13
2017-11-18T12:31:46.126Z,20.43
2017-11-18T12:34:14.720Z,25.60
2017-11-18T12:36:43.052Z,24.57
2017-11-18T12:39:11.578Z,24.23
2017-11-18T12:41:39.917Z,28.50
2017-11-18T12:44:08.136Z,22.17
2017-11-18T12:46:35.812Z,19.40
2017-11-18T12:49:04.878Z,18.90
2017-11-18T12:51:33.200Z,17.37
2017-11-18T12:54:01.535Z,17.07
2017-11-18T12:56:29.886Z,18.20
2017-11-18T12:58:58.992Z,24.43
2017-11-18T13:01:28.282Z,13.23
2017-11-18T13:03:56.608Z,17.83
2017-11-18T13:06:25.141Z,13.93
2017-11-18T13:08:53.616Z,15.30
2017-11-18T13:11:21.943Z,12.67
2017-11-18T13:13:50.274Z,15.87
2017-11-18T13:16:18.598Z,15.87
2017-11-18T13:18:47.163Z,18.40
2017-11-18T13:21:15.474Z,19.20
2017-11-18T13:23:43.821Z,13.00
2017-11-18T13:26:12.249Z,9.97
2017-11-18T13:28:40.605Z,10.80
2017-11-18T13:31:09.697Z,16.57
2017-11-18T13:33:38.033Z,11.63
2017-11-18T13:36:06.047Z,10.90
2017-11-18T13:38:34.744Z,12.10
2017-11-18T13:41:03.062Z,19.10
2017-11-18T13:43:31.593Z,13.67
2017-11-18T13:45:59.924Z,13.40
2017-11-18T13:48:28.724Z,11.40
2017-11-18T13:50:57.059Z,12.60
2017-11-18T13:53:25.397Z,14.90
2017-11-18T13:55:57.518Z,12.80
2017-11-18T13:58:29.069Z,14.97
2017-11-18T14:00:57.525Z,14.37
2017-11-18T14:03:25.860Z,14.40
2017-11-18T14:05:53.867Z,16.53
2017-11-18T14:08:22.401Z,14.10
2017-11-18T14:10:50.842Z,15.87
2017-11-18T14:13:19.386Z,13.80
2017-11-18T14:15:47.070Z,14.07
2017-11-18T14:18:15.425Z,12.80
2017-11-18T14:20:43.793Z,14.43
2017-11-18T14:23:12.132Z,14.73
2017-11-18T14:25:40.663Z,16.80
2017-11-18T14:28:08.992Z,14.07
2017-11-18T14:30:36.689Z,13.70
2017-11-18T14:33:04.236Z,19.53
2017-11-18T14:35:32.567Z,18.87
2017-11-18T14:38:00.716Z,10.90
2017-11-18T14:40:28.752Z,17.23
2017-11-18T14:42:57.368Z,22.33
2017-11-18T14:45:25.812Z,12.57
2017-11-18T14:47:53.821Z,15.33
2017-11-18T14:50:22.260Z,15.17
2017-11-18T14:52:50.632Z,16.93
2017-11-18T14:55:19.142Z,11.83
2017-11-18T14:57:47.482Z,16.50
2017-11-18T15:00:15.012Z,12.43
2017-11-18T15:02:42.836Z,18.57
2017-11-18T15:05:10.327Z,12.20
2017-11-18T15:07:38.877Z,14.23
2017-11-18T15:10:06.527Z,11.20
2017-11-18T15:12:34.081Z,16.47
2017-11-18T15:15:02.178Z,15.43
2017-11-18T15:17:36.061Z,14.70
2017-11-18T15:23:25.541Z,12.80
2017-11-18T15:25:58.697Z,17.67
2017-11-18T15:28:45.654Z,13.00
2017-11-18T15:31:28.360Z,12.83
2017-11-18T15:34:01.608Z,12.77
2017-11-18T15:36:44.925Z,14.77
2017-11-18T15:39:12.519Z,12.53
2017-11-18T15:41:39.986Z,16.77
2017-11-18T15:44:22.367Z,12.33
2017-11-18T15:47:09.949Z,11.50
2017-11-18T15:49:45.672Z,13.83
2017-11-18T15:52:18.823Z,19.30
2017-11-18T15:54:49.880Z,14.27
2017-11-18T15:57:32.264Z,13.30
2017-11-18T16:00:01.028Z,15.07
2017-11-18T16:02:29.371Z,12.67
2017-11-18T16:04:57.490Z,15.93
2017-11-18T16:07:30.633Z,12.90
2017-11-18T16:09:58.642Z,15.83
2017-11-18T16:12:26.513Z,15.23
2017-11-18T16:14:54.527Z,12.83
2017-11-18T16:17:22.855Z,12.93
2017-11-18T16:19:50.929Z,15.80
2017-11-18T16:22:18.629Z,11.53
2017-11-18T16:24:46.453Z,15.63
2017-11-18T16:27:14.823Z,16.47
2017-11-18T16:29:42.523Z,14.33
2017-11-18T16:32:10.184Z,17.40
2017-11-18T16:34:37.942Z,14.83
2017-11-18T16:37:05.627Z,16.03
2017-11-18T16:39:33.324Z,16.53
2017-11-18T16:42:01.067Z,17.00
2017-11-18T16:44:28.856Z,17.60
2017-11-18T16:46:56.613Z,19.60
2017-11-18T16:49:25.058Z,14.60
2017-11-18T16:51:53.065Z,14.10
2017-11-18T16:54:20.743Z,16.37
2017-11-18T16:56:48.471Z,13.93
2017-11-18T16:59:16.162Z,22.50
2017-11-18T17:01:43.891Z,13.70
2017-11-18T17:04:11.656Z,16.67
2017-11-18T17:06:39.497Z,20.33
2017-11-18T17:09:07.969Z,15.90
2017-11-18T17:11:35.828Z,15.73
2017-11-18T17:14:03.716Z,14.40
2017-11-18T17:16:31.583Z,11.90
2017-11-18T17:18:59.630Z,14.83
2017-11-18T17:21:27.967Z,12.90
2017-11-18T17:23:56.001Z,13.07
2017-11-18T17:26:24.009Z,12.23
2017-11-18T17:28:52.196Z,20.47
2017-11-18T17:31:20.669Z,17.40
2017-11-18T17:33:48.408Z,16.73
2017-11-18T17:36:16.121Z,19.50
2017-11-18T17:38:44.071Z,13.30
2017-11-18T17:41:11.740Z,20.53
2017-11-18T17:43:40.246Z,11.27
2017-11-18T17:46:08.867Z,13.47
2017-11-18T17:48:36.552Z,19.43
2017-11-18T17:51:05.214Z,18.53
2017-11-18T17:53:32.908Z,11.40
2017-11-18T17:56:00.414Z,13.70
2017-11-18T17:58:27.898Z,14.23
2017-11-18T18:00:56.108Z,14.47
2017-11-18T18:03:24.074Z,11.20
2017-11-18T18:05:51.774Z,14.37
2017-11-18T18:08:19.532Z,16.70
2017-11-18T18:10:47.195Z,9.90
2017-11-18T18:13:15.222Z,8.40
2017-11-18T18:15:43.223Z,6.00
2017-11-18T18:18:11.586Z,5.17
2017-11-18T18:20:39.925Z,6.80
2017-11-18T18:23:08.525Z,7.40
2017-11-18T18:25:36.865Z,6.40
2017-11-18T18:28:05.648Z,9.70
2017-11-18T18:30:33.985Z,9.07
2017-11-18T18:33:02.346Z,11.93
2017-11-18T18:35:30.528Z,8.43
2017-11-18T18:37:58.701Z,8.77
2017-11-18T18:40:27.069Z,5.73
2017-11-18T18:42:55.423Z,7.13
2017-11-18T18:45:23.811Z,10.63
2017-11-18T18:47:52.312Z,6.87
2017-11-18T18:50:21.052Z,9.53
2017-11-18T18:52:50.186Z,12.50
2017-11-18T18:55:17.893Z,10.67
2017-11-18T18:57:46.245Z,14.63
2017-11-18T19:00:14.331Z,15.60
2017-11-18T19:02:42.704Z,16.80
2017-11-18T19:05:11.070Z,13.23
2017-11-18T19:07:39.406Z,14.40
2017-11-18T19:10:07.992Z,17.63
2017-11-18T19:12:36.354Z,24.23
2017-11-18T19:15:04.693Z,17.93
2017-11-18T19:17:33.069Z,16.07
2017-11-18T19:20:01.446Z,13.60
2017-11-18T19:22:29.968Z,16.33
2017-11-18T19:24:58.330Z,11.87
2017-11-18T19:27:28.021Z,15.30
2017-11-18T19:29:56.391Z,13.67
2017-11-18T19:32:26.323Z,13.90
2017-11-18T19:34:54.668Z,14.13
2017-11-18T19:37:23.569Z,11.43
2017-11-18T19:39:52.682Z,14.20
2017-11-18T19:42:21.171Z,17.17
2017-11-18T19:44:49.523Z,15.00
2017-11-18T19:47:17.879Z,11.30
2017-11-18T19:49:46.217Z,15.50
2017-11-18T19:52:14.789Z,16.63
2017-11-18T19:54:43.552Z,13.33
2017-11-18T19:57:12.000Z,17.33
2017-11-18T19:59:40.385Z,16.77
2017-11-18T20:02:08.749Z,18.50
2017-11-18T20:04:37.086Z,18.73
2017-11-18T20:07:04.777Z,16.70
2017-11-18T20:09:32.893Z,18.67
2017-11-18T20:12:01.412Z,19.07
2017-11-18T20:14:30.558Z,21.87
2017-11-18T20:16:59.346Z,25.57
2017-11-18T20:19:27.687Z,20.73
2017-11-18T20:21:56.075Z,28.93
2017-11-18T20:24:24.089Z,25.47
2017-11-18T20:26:52.087Z,24.80
2017-11-18T20:29:20.106Z,27.53
2017-11-18T20:31:48.455Z,25.87
2017-11-18T20:34:16.862Z,25.50
2017-11-18T20:36:45.336Z,21.33
2017-11-18T20:39:13.866Z,21.73
2017-11-18T20:41:42.214Z,24.17
2017-11-18T20:44:10.553Z,19.37
2017-11-18T20:46:38.902Z,19.20
2017-11-18T20:49:08.209Z,18.90
2017-11-18T20:51:36.371Z,19.53
2017-11-18T20:54:05.481Z,24.23
2017-11-18T20:56:33.953Z,25.17
2017-11-18T20:59:02.314Z,19.17
2017-11-18T21:01:30.668Z,21.23
2017-11-18T21:03:59.022Z,17.60
2017-11-18T21:06:27.467Z,20.50
2017-11-18T21:08:55.894Z,17.60
2017-11-18T21:11:24.312Z,17.93
2017-11-18T21:13:52.871Z,19.60
2017-11-18T21:16:21.238Z,19.40
2017-11-18T21:18:50.374Z,19.53
2017-11-18T21:21:18.717Z,17.17
2017-11-18T21:23:47.080Z,20.63
2017-11-18T21:26:15.470Z,16.70
2017-11-18T21:28:43.813Z,16.43
2017-11-18T21:31:12.138Z,16.47
2017-11-18T21:33:40.489Z,15.57
2017-11-18T21:36:09.149Z,26.50
2017-11-18T21:38:37.190Z,17.60
2017-11-18T21:41:05.782Z,21.90
2017-11-18T21:43:34.360Z,22.53
2017-11-18T21:46:03.073Z,17.33
2017-11-18T21:48:31.443Z,23.17
2017-11-18T21:50:59.804Z,17.83
2017-11-18T21:53:28.366Z,19.57
2017-11-18T21:55:56.765Z,22.40
2017-11-18T21:58:25.733Z,23.03
2017-11-18T22:00:54.698Z,24.90
2017-11-18T22:03:22.953Z,30.27
2017-11-18T22:05:51.376Z,21.27
2017-11-18T22:08:19.709Z,21.83
2017-11-18T22:10:48.818Z,22.73
2017-11-18T22:13:17.156Z,27.60
2017-11-18T22:15:45.499Z,26.67
2017-11-18T22:18:13.822Z,31.30
2017-11-18T22:20:42.163Z,25.97
2017-11-18T22:23:10.578Z,31.40
2017-11-18T22:25:38.921Z,30.83
2017-11-18T22:28:07.373Z,28.33
2017-11-18T22:30:35.741Z,29.50
2017-11-18T22:33:04.842Z,31.50
2017-11-18T22:35:33.179Z,25.20
2017-11-18T22:38:01.741Z,31.07
2017-11-18T22:40:30.082Z,32.40
2017-11-18T22:42:58.457Z,33.70
2017-11-18T22:45:27.005Z,28.50
2017-11-18T22:47:55.416Z,27.37
2017-11-18T22:50:23.889Z,24.60
2017-11-18T22:52:52.366Z,24.50
2017-11-18T22:55:20.718Z,22.03
2017-11-18T22:57:49.854Z,21.00
2017-11-18T23:00:17.387Z,18.13
2017-11-18T23:02:46.065Z,18.93
2017-11-18T23:05:14.526Z,20.83
2017-11-18T23:07:42.872Z,20.67
2017-11-18T23:10:11.402Z,21.90
2017-11-18T23:12:39.731Z,23.63
2017-11-18T23:15:08.083Z,22.80
2017-11-18T23:17:36.427Z,21.90
2017-11-18T23:20:05.740Z,27.00
2017-11-18T23:22:35.400Z,23.90
2017-11-18T23:25:05.348Z,25.87
2017-11-18T23:27:34.072Z,30.20
2017-11-18T23:30:03.431Z,29.03
2017-11-18T23:32:31.802Z,30.13
2017-11-18T23:35:00.130Z,26.17
2017-11-18T23:37:28.523Z,27.13
2017-11-18T23:39:57.086Z,30.27
2017-11-18T23:42:25.426Z,25.83
2017-11-18T23:44:53.754Z,27.67
2017-11-18T23:47:23.083Z,30.00
2017-11-18T23:49:51.972Z,29.73
2017-11-18T23:52:21.131Z,25.97
2017-11-18T23:54:49.175Z,30.50
2017-11-18T23:57:18.506Z,28.20
2017-11-18T23:59:46.868Z,27.73
